createdAt,value
2018-11-26T00:04:37.554Z,4.70
2018-11-26T00:09:21.399Z,4.80
2018-11-26T00:14:05.558Z,4.80
2018-11-26T00:18:49.448Z,4.80
2018-11-26T00:23:35.525Z,4.90
2018-11-26T00:28:19.571Z,4.90
2018-11-26T00:33:03.433Z,4.80
2018-11-26T00:37:47.350Z,4.80
2018-11-26T00:42:31.227Z,4.80
2018-11-26T00:47:15.119Z,4.80
2018-11-26T00:51:58.992Z,4.70
2018-11-26T00:56:42.803Z,4.70
2018-11-26T01:01:26.855Z,4.70
2018-11-26T01:06:10.598Z,4.70
2018-11-26T01:10:54.445Z,4.90
2018-11-26T01:15:38.344Z,4.90
2018-11-26T01:20:22.193Z,4.80
2018-11-26T01:25:06.925Z,4.90
2018-11-26T01:29:50.620Z,4.90
2018-11-26T01:34:34.301Z,4.90
2018-11-26T01:39:18.180Z,4.90
2018-11-26T01:44:02.509Z,5.00
2018-11-26T01:48:46.253Z,5.00
2018-11-26T01:53:30.012Z,5.00
2018-11-26T01:58:13.794Z,5.00
2018-11-26T02:02:57.664Z,5.00
2018-11-26T02:07:41.517Z,5.00
2018-11-26T02:12:25.293Z,5.00
2018-11-26T02:17:09.029Z,4.90
2018-11-26T02:21:52.839Z,5.00
2018-11-26T02:26:36.673Z,4.90
2018-11-26T02:31:21.314Z,4.90
2018-11-26T02:36:06.068Z,4.90
2018-11-26T02:40:49.786Z,4.90
2018-11-26T02:45:33.686Z,4.90
2018-11-26T02:50:17.428Z,4.90
2018-11-26T02:55:01.275Z,4.90
2018-11-26T02:59:45.048Z,4.90
2018-11-26T03:04:28.903Z,4.90
2018-11-26T03:09:12.786Z,4.80
2018-11-26T03:13:56.615Z,4.70
2018-11-26T03:18:40.527Z,4.80
2018-11-26T03:23:24.197Z,4.80
2018-11-26T03:28:08.192Z,4.70
2018-11-26T03:32:51.935Z,4.80
2018-11-26T03:37:35.863Z,4.70
2018-11-26T03:42:19.730Z,4.70
2018-11-26T03:47:03.538Z,4.80
2018-11-26T03:51:47.297Z,4.80
2018-11-26T03:56:31.111Z,4.70
2018-11-26T04:01:14.851Z,4.70
2018-11-26T04:05:59.616Z,4.70
2018-11-26T04:10:43.624Z,4.70
2018-11-26T04:15:27.444Z,4.70
2018-11-26T04:20:11.171Z,4.80
2018-11-26T04:24:54.919Z,4.80
2018-11-26T04:29:38.721Z,4.70
2018-11-26T04:34:22.489Z,4.70
2018-11-26T04:39:07.966Z,4.70
2018-11-26T04:43:51.708Z,4.70
2018-11-26T04:48:35.456Z,4.70
2018-11-26T04:53:19.213Z,4.70
2018-11-26T04:58:02.993Z,4.70
2018-11-26T05:02:46.852Z,4.50
2018-11-26T05:07:30.543Z,4.50
2018-11-26T05:12:14.298Z,4.40
2018-11-26T05:16:58.184Z,4.40
2018-11-26T05:21:41.965Z,4.40
2018-11-26T05:26:25.877Z,4.40
2018-11-26T05:31:09.704Z,4.30
2018-11-26T05:35:53.648Z,4.20
2018-11-26T05:40:37.654Z,4.10
2018-11-26T05:45:21.542Z,4.10
2018-11-26T05:50:08.226Z,4.10
2018-11-26T05:54:52.368Z,4.00
2018-11-26T05:59:36.152Z,4.00
2018-11-26T06:04:19.931Z,3.90
2018-11-26T06:09:04.303Z,4.00
2018-11-26T06:13:48.048Z,3.90
2018-11-26T06:18:32.917Z,3.90
2018-11-26T06:23:16.859Z,3.80
2018-11-26T06:28:00.718Z,3.80
2018-11-26T06:32:44.912Z,3.80
2018-11-26T06:37:29.039Z,3.80
2018-11-26T06:42:15.679Z,3.80
2018-11-26T06:46:59.638Z,3.80
2018-11-26T06:51:43.474Z,3.80
2018-11-26T06:56:27.430Z,3.80
2018-11-26T07:01:11.299Z,3.80
2018-11-26T07:05:55.100Z,3.70
2018-11-26T07:10:39.944Z,3.70
2018-11-26T07:15:45.105Z,3.70
2018-11-26T07:20:29.868Z,3.70
2018-11-26T07:25:16.863Z,3.70
2018-11-26T07:30:00.786Z,3.80
2018-11-26T07:34:45.244Z,3.70
2018-11-26T07:39:29.453Z,3.70
2018-11-26T07:44:13.280Z,3.70
2018-11-26T07:48:58.516Z,3.70
2018-11-26T07:53:42.848Z,3.70
2018-11-26T07:58:26.574Z,3.70
2018-11-26T08:03:10.396Z,3.70
2018-11-26T08:07:54.138Z,3.70
2018-11-26T08:12:38.113Z,3.70
2018-11-26T08:17:21.732Z,3.60
2018-11-26T08:22:05.672Z,3.60
2018-11-26T08:26:49.546Z,3.50
2018-11-26T08:31:33.801Z,3.50
2018-11-26T08:36:21.856Z,3.50
2018-11-26T08:41:08.880Z,3.40
2018-11-26T08:45:56.401Z,3.40
2018-11-26T08:50:40.525Z,3.30
2018-11-26T08:55:24.402Z,3.40
2018-11-26T09:00:10.078Z,3.50
2018-11-26T09:05:00.252Z,3.50
2018-11-26T09:09:44.280Z,3.40
2018-11-26T09:14:28.028Z,3.40
2018-11-26T09:19:11.852Z,3.50
2018-11-26T09:23:55.638Z,3.50
2018-11-26T09:28:39.632Z,3.50
2018-11-26T09:33:23.521Z,3.40
2018-11-26T09:38:07.293Z,3.40
2018-11-26T09:42:50.966Z,3.40
2018-11-26T09:47:34.969Z,3.40
2018-11-26T09:52:18.723Z,3.30
2018-11-26T09:57:02.542Z,3.30
2018-11-26T10:01:47.560Z,3.30
2018-11-26T10:06:31.304Z,3.30
2018-11-26T10:11:15.066Z,3.20
2018-11-26T10:15:59.011Z,3.20
2018-11-26T10:20:42.824Z,3.30
2018-11-26T10:25:26.605Z,3.20
2018-11-26T10:30:14.187Z,3.20
2018-11-26T10:34:58.204Z,3.20
2018-11-26T10:39:42.332Z,3.30
2018-11-26T10:44:26.281Z,3.20
2018-11-26T10:49:10.003Z,3.20
2018-11-26T10:53:53.926Z,3.20
2018-11-26T10:58:38.062Z,3.10
2018-11-26T11:03:30.523Z,3.10
2018-11-26T11:08:14.377Z,3.20
2018-11-26T11:12:58.118Z,3.20
2018-11-26T11:17:42.024Z,3.30
2018-11-26T11:22:26.220Z,3.30
2018-11-26T11:27:09.991Z,3.40
2018-11-26T11:31:53.817Z,3.40
2018-11-26T11:36:37.627Z,3.40
2018-11-26T11:41:21.436Z,3.50
2018-11-26T11:46:06.274Z,3.50
2018-11-26T11:50:50.133Z,3.60
2018-11-26T11:55:34.071Z,3.60
2018-11-26T12:00:28.085Z,3.70
2018-11-26T12:05:13.527Z,3.70
2018-11-26T12:09:57.285Z,3.70
2018-11-26T12:14:41.227Z,3.70
2018-11-26T12:19:25.033Z,3.70
2018-11-26T12:24:08.779Z,3.60
2018-11-26T12:28:53.432Z,3.60
2018-11-26T12:33:37.315Z,3.60
2018-11-26T12:38:21.062Z,3.60
2018-11-26T12:43:06.538Z,3.60
2018-11-26T12:47:51.003Z,3.60
2018-11-26T12:52:34.862Z,3.60
2018-11-26T12:57:18.632Z,3.60
2018-11-26T13:02:02.613Z,3.60
2018-11-26T13:06:46.449Z,3.60
2018-11-26T13:11:30.275Z,3.60
2018-11-26T13:16:14.103Z,3.70
2018-11-26T13:20:57.959Z,3.60
2018-11-26T13:25:42.354Z,3.60
2018-11-26T13:30:27.025Z,3.60
2018-11-26T13:35:12.205Z,3.60
2018-11-26T13:39:56.108Z,3.60
2018-11-26T13:44:39.931Z,3.60
2018-11-26T13:49:23.865Z,3.60
2018-11-26T13:54:07.692Z,3.60
2018-11-26T13:58:51.631Z,3.60
2018-11-26T14:03:35.504Z,3.60
2018-11-26T14:08:19.531Z,3.60
2018-11-26T14:13:08.725Z,3.60
2018-11-26T14:17:52.730Z,3.40
2018-11-26T14:22:36.486Z,3.30
2018-11-26T14:27:20.320Z,3.20
2018-11-26T14:32:05.155Z,3.20
2018-11-26T14:36:49.596Z,3.20
2018-11-26T14:41:33.352Z,3.20
2018-11-26T14:46:17.160Z,3.10
2018-11-26T14:51:01.139Z,3.10
2018-11-26T14:55:45.446Z,3.00
2018-11-26T15:00:32.320Z,2.90
2018-11-26T15:05:16.478Z,2.90
2018-11-26T15:10:05.784Z,2.80
2018-11-26T15:14:49.627Z,2.80
2018-11-26T15:19:33.908Z,2.80
2018-11-26T15:24:17.603Z,2.80
2018-11-26T15:29:01.331Z,2.80
2018-11-26T15:33:45.246Z,2.70
2018-11-26T15:38:29.947Z,2.60
2018-11-26T15:43:13.728Z,2.50
2018-11-26T15:48:01.111Z,2.50
2018-11-26T15:52:44.963Z,2.50
2018-11-26T15:57:28.693Z,2.50
2018-11-26T16:02:12.862Z,2.50
2018-11-26T16:06:56.648Z,2.50
2018-11-26T16:11:40.409Z,2.50
2018-11-26T16:16:24.266Z,2.60
2018-11-26T16:21:08.103Z,2.50
2018-11-26T16:25:51.934Z,2.50
2018-11-26T16:30:35.842Z,2.50
2018-11-26T16:35:21.708Z,2.50
2018-11-26T16:40:08.280Z,2.50
2018-11-26T16:44:53.931Z,2.50
2018-11-26T16:49:38.033Z,2.60
2018-11-26T16:54:21.952Z,2.60
2018-11-26T16:59:06.620Z,2.60
2018-11-26T17:03:50.793Z,2.70
2018-11-26T17:08:34.756Z,2.60
2018-11-26T17:13:18.656Z,2.60
2018-11-26T17:18:02.498Z,2.60
2018-11-26T17:22:46.489Z,2.60
2018-11-26T17:27:30.469Z,2.60
2018-11-26T17:32:14.351Z,2.70
2018-11-26T17:36:58.301Z,2.60
2018-11-26T17:41:57.908Z,2.60
2018-11-26T17:46:41.832Z,2.60
2018-11-26T17:51:27.141Z,2.60
2018-11-26T17:56:11.001Z,2.60
2018-11-26T18:01:02.281Z,2.60
2018-11-26T18:05:47.120Z,2.50
2018-11-26T18:10:32.153Z,2.50
2018-11-26T18:15:16.334Z,2.50
2018-11-26T18:20:00.319Z,2.50
2018-11-26T18:24:44.364Z,2.60
2018-11-26T18:29:28.738Z,2.50
2018-11-26T18:34:12.921Z,2.50
2018-11-26T18:38:56.928Z,2.50
2018-11-26T18:43:41.242Z,2.50
2018-11-26T18:48:25.263Z,2.50
2018-11-26T18:53:09.307Z,2.50
2018-11-26T18:57:53.293Z,2.40
2018-11-26T19:02:37.555Z,2.50
2018-11-26T19:07:21.524Z,2.40
2018-11-26T19:12:15.955Z,2.40
2018-11-26T19:16:59.973Z,2.40
2018-11-26T19:22:00.085Z,2.50
2018-11-26T19:26:57.065Z,2.40
2018-11-26T19:32:07.670Z,2.40
2018-11-26T19:36:51.766Z,2.40
2018-11-26T19:41:37.535Z,2.40
2018-11-26T19:46:21.572Z,2.40
2018-11-26T19:51:05.658Z,2.30
2018-11-26T19:55:49.712Z,2.30
2018-11-26T20:00:39.058Z,2.30
2018-11-26T20:06:35.530Z,2.30
2018-11-26T20:11:22.048Z,2.20
2018-11-26T20:21:24.163Z,2.20
2018-11-26T20:26:08.095Z,2.10
2018-11-26T20:31:01.168Z,2.00
2018-11-26T20:35:49.136Z,2.00
2018-11-26T20:40:33.108Z,2.00
2018-11-26T20:45:19.878Z,2.00
2018-11-26T20:50:14.151Z,1.90
2018-11-26T20:55:18.485Z,1.80
2018-11-26T21:00:03.813Z,1.80
2018-11-26T21:04:48.037Z,1.70
2018-11-26T21:09:36.796Z,1.60
2018-11-26T21:19:22.422Z,1.60
2018-11-26T21:24:07.168Z,1.50
2018-11-26T21:28:51.551Z,1.60
2018-11-26T21:33:35.664Z,1.60
2018-11-26T21:38:22.864Z,1.60
2018-11-26T21:43:08.045Z,1.70
2018-11-26T21:47:52.678Z,1.70
2018-11-26T21:52:38.018Z,1.60
2018-11-26T21:57:22.252Z,1.50
2018-11-26T22:02:07.485Z,1.60
2018-11-26T22:06:52.035Z,1.50
2018-11-26T22:11:50.159Z,1.50
2018-11-26T22:16:34.360Z,1.50
2018-11-26T22:21:20.306Z,1.50
2018-11-26T22:26:04.802Z,1.60
2018-11-26T22:30:59.096Z,1.60
2018-11-26T22:35:44.950Z,1.40
2018-11-26T22:40:37.186Z,1.40
2018-11-26T22:45:27.425Z,1.40
2018-11-26T22:50:24.386Z,1.40
2018-11-26T22:55:11.351Z,1.20
2018-11-26T23:00:04.216Z,1.20
2018-11-26T23:04:56.920Z,1.20
2018-11-26T23:09:41.767Z,1.20
2018-11-26T23:14:26.495Z,1.10
2018-11-26T23:19:22.330Z,1.20
2018-11-26T23:24:06.417Z,1.10
2018-11-26T23:28:51.723Z,1.20
2018-11-26T23:33:35.940Z,1.10
2018-11-26T23:38:20.129Z,1.10
2018-11-26T23:43:04.404Z,1.10
2018-11-26T23:47:48.813Z,1.00
2018-11-26T23:52:33.465Z,1.00
2018-11-26T23:57:17.796Z,1.00
